Christopher Mitchell

Скаут - Manchester City
14 Окт 2027
Четверг
Продолжить

Характер

Адаптивность (1) Амбиции (5) Скандальность (11) Верность (9) Стрессоустойчивость (19) Профессионализм (1) Благородство (14) Темперамент (8)

Профиль

Стиль управления Демократичный
Лицензия Континентальная C
Решительность 17
Управление людьми 14
Мотивация 13
Дисциплина 15
Удовлетворённость
100%
Усталость
0%
Должность Скаут
Зарплата 121.8K в нед.
Контракт 14.03.2029

Производительность

Поведение Хорошее
Эффективность тренировок
56%
Развитие игроков
40%
Профилактика травм
85%
Тактическая реализация
35%

Недавние события

Участвовал в селекционном совещании 7 дн. назад
Участвовал в селекционном совещании 14 дн. назад
Участвовал в селекционном совещании 21 дн. назад
Участвовал в селекционном совещании 28 дн. назад
Участвовал в селекционном совещании 35 дн. назад
Участвовал в селекционном совещании 42 дн. назад
Участвовал в селекционном совещании 49 дн. назад
Участвовал в селекционном совещании 56 дн. назад

Текущее наблюдение

54
Игрок Клуб Статус Способность Уверенность Наблюдений Последнее наблюдение Последний голос
Khéphren Thuram Aston Villa Активный 165 / 161 40% 4 27.07.2027 -
William Saliba Arsenal Активный 186 / 184 40% 3 27.07.2027 -
Levi Colwill Chelsea Активный 165 / 168 40% 1 27.07.2027 -
Pierre Kalulu Juventus Активный 155 / 155 40% 2 23.07.2027 -
Jakub Kiwior Everton Активный 158 / 156 40% 1 23.07.2027 -
Bruno Guimarães Arsenal Активный 175 / 167 40% 1 23.07.2027 -
Alexis Mac Allister Liverpool Активный 165 / 165 40% 8 22.07.2027 -
Gabriel Arsenal Активный 170 / 180 40% 2 22.07.2027 -
Wesley Fofana Chelsea Активный 167 / 170 40% 1 20.07.2027 -
Jurriën Timber Arsenal Активный 166 / 162 40% 1 20.07.2027 -
Kiernan Dewsbury-Hall Everton Упущен 149 / 144 72% 1 05.07.2027 За
Ryan Gravenberch Liverpool Активный 168 / 161 40% 5 28.06.2027 -
Alessandro Bastoni Inter Активный 171 / 161 40% 1 28.06.2027 -
Martín Zubimendi Arsenal Активный 161 / 158 40% 3 22.06.2027 -
Adrien Rabiot AC Milan Упущен 165 / 154 40% 1 14.06.2027 -
Jack Hinshelwood Brighton Активный 146 / 143 40% 2 02.06.2027 -
Ousmane Diomande Nottingham Forest Активный 157 / 156 40% 1 02.06.2027 -
Aaron Hickey Brentford Активный 147 / 145 40% 1 02.06.2027 -
Yankuba Minteh Brighton Упущен 152 / 147 72% 1 01.06.2027 -
Joško Gvardiol Napoli Активный 168 / 172 40% 8 31.05.2027 -
Hugo Ekitiké Liverpool Активный 168 / 156 40% 2 31.05.2027 -
Dejan Kulusevski Tottenham Активный 177 / 171 40% 18 30.05.2027 -
Kenan Yıldız Juventus Активный 157 / 171 40% 12 29.05.2027 -
Moisés Caicedo Chelsea Активный 175 / 177 40% 17 28.05.2027 -
Sandro Tonali Tottenham Активный 181 / 179 40% 14 28.05.2027 -
Rayan Bournemouth Активный 132 / 150 40% 7 27.05.2027 -
Francesco Pio Esposito Inter Активный 138 / 155 40% 3 27.05.2027 -
Leo Castledine Middlesbrough Активный 123 / 129 40% 2 26.05.2027 -
Assane Diao Lazio Активный 147 / 144 40% 6 25.05.2027 -
Matías Soulé AS Roma Активный 157 / 162 40% 4 25.05.2027 -
Ebere Eze Arsenal Активный 159 / 159 40% 1 25.05.2027 -
Nico González Newcastle United Активный 160 / 159 40% 5 23.05.2027 -
Xavi Simons Tottenham Активный 160 / 149 40% 5 23.05.2027 -
Jeremie Frimpong Liverpool Активный 167 / 159 40% 4 22.05.2027 -
Mohammed Kudus Tottenham Активный 164 / 159 40% 2 17.05.2027 -
Morgan Rogers Chelsea Активный 160 / 161 40% 2 16.05.2027 -
James Maddison Tottenham Активный 151 / 147 40% 4 15.05.2027 -
Gabriel Martinelli Brighton Активный 162 / 160 40% 15 11.05.2027 -
Kai Havertz Arsenal Активный 160 / 155 40% 3 08.05.2027 -
Declan Rice Arsenal Активный 186 / 188 40% 3 08.05.2027 -
Curtis Jones Inter Активный 162 / 160 40% 1 28.04.2027 -
Alexander Isak Liverpool Активный 184 / 178 40% 3 20.04.2027 -
Stefanos Tzimas Brighton Активный 131 / 137 40% 2 17.04.2027 -
Iliman N'Diaye Everton Активный 165 / 166 40% 2 14.04.2027 -
Miloš Kerkez Liverpool Активный 157 / 156 40% 2 10.04.2027 -
Francisco Conceição Juventus Активный 156 / 152 40% 3 07.04.2027 -
Sidiki Chérif Coventry City Активный 127 / 129 40% 1 07.04.2027 -
Will Lankshear Middlesbrough Активный 120 / 135 40% 1 05.04.2027 -
Reece James Chelsea Активный 174 / 166 40% 9 30.03.2027 -
Vinícius Júnior Arsenal Активный 172 / 169 40% 4 30.03.2027 -
Cody Gakpo Liverpool Активный 164 / 164 40% 1 30.03.2027 -
Bradley Barcola Liverpool Активный 167 / 153 40% 3 28.03.2027 -
Caleb Yirenkyi Coventry City Активный 123 / 145 40% 1 01.08.2026 -
El Hadji Malick Diouf Brentford Активный 138 / 147 40% 1 01.08.2026 -